Site contains unofficial IBTrACS data. Visit the IBTrACS Website to access archived data.

1889 Hurricane NOT_NAMED (1889244N13338)


IBTrACS version v04r00. Visit IBTrACS website for data access.
Please direct all questions to the IBTrACS Q and A forum

Storm track - Intensity - Wind Radii - Intensity Data - Source Data - All data

Summary Information

Storm ID 1889244N13338
Start Aug 31 12Z
Max Intensity 70 kt (Sep 8 06Z), 955 mb (Sep 10 12Z)
End Sep 12 00Z
ATCF IDs
Track status Best track data.

Storm track plot

Map of storm track

Intensity plots

Map of storm track

Radial wind information

No radial wind information for this storm


Position and Intensity Table

BASIN ISO_TIME_________ NATURE LAT LON MLC WIND MLC PRES
degrees north degrees east kts mb
NA 1889-08-31 12:00:00 TS 12.50 -22.50 25
NA 15:00:00 TS 12.70 -23.45 25
NA 18:00:00 TS 12.90 -24.40 25
NA 21:00:00 TS 13.10 -25.35 27
NA 1889-09-01 00:00:00 TS 13.30 -26.30 30
NA 03:00:00 TS 13.51 -27.26 30
NA 06:00:00 TS 13.70 -28.20 30
NA 09:00:00 TS 13.86 -29.12 32
NA 12:00:00 TS 14.00 -30.00 35
NA 15:00:00 TS 14.15 -30.82 35
NA 18:00:00 TS 14.30 -31.60 35
NA 21:00:00 TS 14.45 -32.35 35
NA 1889-09-02 00:00:00 TS 14.60 -33.10 35
NA 03:00:00 TS 14.75 -33.90 35
NA 06:00:00 TS 14.90 -34.70 35
NA 09:00:00 TS 15.04 -35.45 35
NA 12:00:00 TS 15.20 -36.20 35
NA 15:00:00 TS 15.39 -36.99 37
NA 18:00:00 TS 15.60 -37.80 40
NA 21:00:00 TS 15.79 -38.60 45
NA 1889-09-03 00:00:00 TS 16.00 -39.40 50
NA 03:00:00 TS 16.25 -40.20 55
NA 06:00:00 TS 16.50 -41.00 60
NA 09:00:00 TS 16.70 -41.80 60
NA 12:00:00 TS 16.90 -42.60 60
NA 15:00:00 TS 17.15 -43.40 62
NA 18:00:00 TS 17.40 -44.20 65
NA 21:00:00 TS 17.60 -45.00 65
NA 1889-09-04 00:00:00 TS 17.80 -45.80 65
NA 03:00:00 TS 18.04 -46.60 65
NA 06:00:00 TS 18.30 -47.40 65
NA 09:00:00 TS 18.47 -48.22 65
NA 12:00:00 TS 18.80 -49.00 65
NA 15:00:00 TS 19.52 -49.68 65
NA 18:00:00 TS 20.40 -50.30 65
NA 21:00:00 TS 21.19 -50.90 65
NA 1889-09-05 00:00:00 TS 21.90 -51.50 65
NA 03:00:00 TS 22.41 -52.15 65
NA 06:00:00 TS 23.00 -52.80 65
NA 09:00:00 TS 23.96 -53.61 65
NA 12:00:00 TS 25.00 -54.00 65
NA 15:00:00 TS 25.83 -53.46 65
NA 18:00:00 TS 26.60 -52.50 65
NA 21:00:00 TS 27.40 -51.81 65
NA 1889-09-06 00:00:00 TS 28.20 -51.00 65
NA 03:00:00 TS 28.99 -49.90 65
NA 06:00:00 TS 29.80 -48.70 65
NA 09:00:00 TS 30.64 -47.54 65
NA 12:00:00 TS 31.50 -46.50 65
NA 15:00:00 TS 32.36 -45.69 65
NA 18:00:00 TS 33.20 -45.00 65
NA 21:00:00 TS 34.01 -44.21 65
NA 1889-09-07 00:00:00 TS 34.80 -43.50 65
NA 03:00:00 TS 35.60 -42.96 65
NA 06:00:00 TS 36.40 -42.50 65
NA 09:00:00 TS 37.30 -42.00 65
NA 12:00:00 TS 38.00 -41.50 65
NA 15:00:00 TS 38.25 -41.00 65
NA 18:00:00 TS 38.30 -40.50 65
NA 21:00:00 TS 38.40 -40.00 65
NA 1889-09-08 00:00:00 TS 38.50 -39.50 65
NA 03:00:00 TS 38.65 -39.00 67
NA 06:00:00 TS 38.80 -38.50 70
NA 09:00:00 TS 38.85 -38.07 70
NA 12:00:00 TS 39.00 -37.50 70
NA 15:00:00 TS 39.39 -36.63 70
NA 18:00:00 TS 39.90 -35.60 70
NA 21:00:00 TS 40.40 -34.60 70
NA 1889-09-09 00:00:00 TS 40.90 -33.60 70
NA 03:00:00 TS 41.35 -32.65 70
NA 06:00:00 TS 41.80 -31.70 70
NA 09:00:00 TS 42.16 -30.55 70
NA 12:00:00 TS 42.80 -29.70 70
NA 15:00:00 TS 44.06 -29.59 70
NA 18:00:00 TS 45.60 -29.80 70
NA 21:00:00 TS 47.00 -29.85 70
NA 1889-09-10 00:00:00 TS 48.40 -29.90 70
NA 03:00:00 TS 49.80 -29.96 70
NA 06:00:00 TS 51.20 -30.00 70
NA 09:00:00 TS 52.73 -30.06 70
NA 12:00:00 ET 54.00 -30.00 70 955
NA 15:00:00 ET 54.64 -29.70 70
NA 18:00:00 ET 55.00 -29.30 70
NA 21:00:00 ET 55.50 -28.99 67
NA 1889-09-11 00:00:00 ET 56.00 -28.70 65
NA 03:00:00 ET 56.50 -28.40 65
NA 06:00:00 ET 57.00 -28.10 65
NA 09:00:00 ET 57.55 -27.63 65
NA 12:00:00 ET 58.00 -27.50 65 984
NA 15:00:00 ET 58.21 -28.18 60
NA 18:00:00 ET 58.30 -29.20 55
NA 21:00:00 ET 58.39 -30.07 50
NA 1889-09-12 00:00:00 ET 58.50 -30.80 45

Source Information

Agency Information
USA
TOKYO
CMA
HKO
NEWDELHI
REUNION
BOM
NADI
WELLINGTON
DS824
TD9636
TD9635
NEUMANN
MLC

All available IBTrACS Data

SEASON BASIN SUBBASIN ISO_TIME_________ NATURE LAT LON DIST2LAND LANDFALL IFLAG USA SSHS MLC LAT MLC LON MLC CLASS MLC WIND MLC PRES STORM SPEED STORM DIR
Year degrees north degrees east km km 1 degrees north degrees east kts mb kts degrees
1889 NA NA 1889-08-31 12:00:00 TS 12.50 -22.50 594 594 _____________O -1 12.50 -22.50 TD 25 19 282
1889 NA NA 15:00:00 TS 12.70 -23.45 675 675 _____________P -1 12.70 -23.45 TD 25 19 282
1889 NA NA 18:00:00 TS 12.90 -24.40 772 772 _____________O -1 12.90 -24.40 TD 25 19 282
1889 NA NA 21:00:00 TS 13.10 -25.35 871 871 _____________P -1 13.10 -25.35 TD 27 19 282
1889 NA NA 1889-09-01 00:00:00 TS 13.30 -26.30 962 962 _____________O -1 13.30 -26.30 TD 30 19 282
1889 NA NA 03:00:00 TS 13.51 -27.26 1065 1065 _____________P -1 13.51 -27.26 TD 30 19 282
1889 NA NA 06:00:00 TS 13.70 -28.20 1159 1159 _____________O -1 13.70 -28.20 TD 30 18 281
1889 NA NA 09:00:00 TS 13.86 -29.12 1253 1253 _____________P -1 13.86 -29.12 TD 32 18 280
1889 NA NA 12:00:00 TS 14.00 -30.00 1349 1349 _____________O -1 14.00 -30.00 TS 35 17 280
1889 NA NA 15:00:00 TS 14.15 -30.82 1434 1434 _____________P -1 14.15 -30.82 TS 35 16 281
1889 NA NA 18:00:00 TS 14.30 -31.60 1519 1519 _____________O -1 14.30 -31.60 TS 35 15 281
1889 NA NA 21:00:00 TS 14.45 -32.35 1604 1603 _____________P -1 14.45 -32.35 TS 35 15 282
1889 NA NA 1889-09-02 00:00:00 TS 14.60 -33.10 1678 1678 _____________O -1 14.60 -33.10 TS 35 15 281
1889 NA NA 03:00:00 TS 14.75 -33.90 1764 1763 _____________P -1 14.75 -33.90 TS 35 16 281
1889 NA NA 06:00:00 TS 14.90 -34.70 1849 1849 _____________O -1 14.90 -34.70 TS 35 15 281
1889 NA NA 09:00:00 TS 15.04 -35.45 1935 1935 _____________P -1 15.04 -35.45 TS 35 15 282
1889 NA NA 12:00:00 TS 15.20 -36.20 2010 2007 _____________O -1 15.20 -36.20 TS 35 15 283
1889 NA NA 15:00:00 TS 15.39 -36.99 1998 1945 _____________P -1 15.39 -36.99 TS 37 16 285
1889 NA NA 18:00:00 TS 15.60 -37.80 1945 1894 _____________O -1 15.60 -37.80 TS 40 16 284
1889 NA NA 21:00:00 TS 15.79 -38.60 1894 1846 _____________P -1 15.79 -38.60 TS 45 16 285
1889 NA NA 1889-09-03 00:00:00 TS 16.00 -39.40 1846 1802 _____________O -1 16.00 -39.40 TS 50 16 287
1889 NA NA 03:00:00 TS 16.25 -40.20 1802 1769 _____________P -1 16.25 -40.20 TS 55 16 288
1889 NA NA 06:00:00 TS 16.50 -41.00 1769 1733 _____________O -1 16.50 -41.00 TS 60 16 286
1889 NA NA 09:00:00 TS 16.70 -41.80 1733 1700 _____________P -1 16.70 -41.80 TS 60 16 285
1889 NA NA 12:00:00 TS 16.90 -42.60 1700 1667 _____________O -1 16.90 -42.60 TS 60 16 286
1889 NA NA 15:00:00 TS 17.15 -43.40 1667 1644 _____________P -1 17.15 -43.40 TS 62 16 288
1889 NA NA 18:00:00 TS 17.40 -44.20 1644 1616 _____________O -1 17.40 -44.20 HU 65 16 286
1889 NA NA 21:00:00 TS 17.60 -45.00 1616 1593 _____________P -1 17.60 -45.00 HU 65 16 285
1889 NA NA 1889-09-04 00:00:00 TS 17.80 -45.80 1593 1573 _____________O -1 17.80 -45.80 HU 65 16 286
1889 NA NA 03:00:00 TS 18.04 -46.60 1573 1567 _____________P -1 18.04 -46.60 HU 65 16 288
1889 NA NA 06:00:00 TS 18.30 -47.40 1569 1548 _____________O -1 18.30 -47.40 HU 65 16 285
1889 NA NA 09:00:00 TS 18.47 -48.22 1553 1537 _____________P -1 18.47 -48.22 HU 65 16 288
1889 NA NA 12:00:00 TS 18.80 -49.00 1550 1550 _____________O -1 18.80 -49.00 HU 65 17 307
1889 NA NA 15:00:00 TS 19.52 -49.68 1561 1560 _____________P -1 19.52 -49.68 HU 65 20 323
1889 NA NA 18:00:00 TS 20.40 -50.30 1577 1567 _____________O -1 20.40 -50.30 HU 65 20 325
1889 NA NA 21:00:00 TS 21.19 -50.90 1568 1522 _____________P -1 21.19 -50.90 HU 65 19 323
1889 NA NA 1889-09-05 00:00:00 TS 21.90 -51.50 1522 1475 _____________O -1 21.90 -51.50 HU 65 17 317
1889 NA NA 03:00:00 TS 22.41 -52.15 1465 1426 _____________P -1 22.41 -52.15 HU 65 16 312
1889 NA NA 06:00:00 TS 23.00 -52.80 1426 1387 _____________O -1 23.00 -52.80 HU 65 21 319
1889 NA NA 09:00:00 TS 23.96 -53.61 1391 1382 _____________P -1 23.96 -53.61 HU 65 23 331
1889 NA NA 12:00:00 TS 25.00 -54.00 1406 1406 _____________O -1 25.00 -54.00 HU 65 19 4
1889 NA NA 15:00:00 TS 25.83 -53.46 1494 1494 _____________P -1 25.83 -53.46 HU 65 21 40
1889 NA NA 18:00:00 TS 26.60 -52.50 1626 1626 _____________O -1 26.60 -52.50 HU 65 22 43
1889 NA NA 21:00:00 TS 27.40 -51.81 1732 1732 _____________P -1 27.40 -51.81 HU 65 21 40
1889 NA NA 1889-09-06 00:00:00 TS 28.20 -51.00 1846 1846 _____________O -1 28.20 -51.00 HU 65 23 46
1889 NA NA 03:00:00 TS 28.99 -49.90 1980 1908 _____________P -1 28.99 -49.90 HU 65 26 52
1889 NA NA 06:00:00 TS 29.80 -48.70 1910 1845 _____________O -1 29.80 -48.70 HU 65 26 51
1889 NA NA 09:00:00 TS 30.64 -47.54 1847 1772 _____________P -1 30.64 -47.54 HU 65 25 48
1889 NA NA 12:00:00 TS 31.50 -46.50 1775 1711 _____________O -1 31.50 -46.50 HU 65 23 43
1889 NA NA 15:00:00 TS 32.36 -45.69 1703 1644 _____________P -1 32.36 -45.69 HU 65 21 37
1889 NA NA 18:00:00 TS 33.20 -45.00 1644 1588 _____________O -1 33.20 -45.00 HU 65 21 37
1889 NA NA 21:00:00 TS 34.01 -44.21 1592 1542 _____________P -1 34.01 -44.21 HU 65 20 38
1889 NA NA 1889-09-07 00:00:00 TS 34.80 -43.50 1542 1488 _____________O -1 34.80 -43.50 HU 65 19 33
1889 NA NA 03:00:00 TS 35.60 -42.96 1488 1438 _____________P -1 35.60 -42.96 HU 65 18 27
1889 NA NA 06:00:00 TS 36.40 -42.50 1438 1383 _____________O -1 36.40 -42.50 HU 65 19 24
1889 NA NA 09:00:00 TS 37.30 -42.00 1383 1351 _____________P -1 37.30 -42.00 HU 65 18 26
1889 NA NA 12:00:00 TS 38.00 -41.50 1351 1346 _____________O -1 38.00 -41.50 HU 65 12 40
1889 NA NA 15:00:00 TS 38.25 -41.00 1356 1356 _____________P -1 38.25 -41.00 HU 65 8 69
1889 NA NA 18:00:00 TS 38.30 -40.50 1386 1386 _____________O -1 38.30 -40.50 HU 65 8 80
1889 NA NA 21:00:00 TS 38.40 -40.00 1408 1408 _____________P -1 38.40 -40.00 HU 65 8 76
1889 NA NA 1889-09-08 00:00:00 TS 38.50 -39.50 1432 1432 _____________O -1 38.50 -39.50 HU 65 8 72
1889 NA NA 03:00:00 TS 38.65 -39.00 1456 1448 _____________P -1 38.65 -39.00 HU 67 8 69
1889 NA NA 06:00:00 TS 38.80 -38.50 1472 1472 _____________O -1 38.80 -38.50 HU 70 8 74
1889 NA NA 09:00:00 TS 38.85 -38.07 1491 1491 _____________P -1 38.85 -38.07 HU 70 8 76
1889 NA NA 12:00:00 TS 39.00 -37.50 1523 1523 _____________O -1 39.00 -37.50 HU 70 12 64
1889 NA NA 15:00:00 TS 39.39 -36.63 1556 1556 _____________P -1 39.39 -36.63 HU 70 17 58
1889 NA NA 18:00:00 TS 39.90 -35.60 1593 1593 _____________O -1 39.90 -35.60 HU 70 19 57
1889 NA NA 21:00:00 TS 40.40 -34.60 1632 1632 _____________P -1 40.40 -34.60 HU 70 18 57
1889 NA NA 1889-09-09 00:00:00 TS 40.90 -33.60 1671 1671 _____________O -1 40.90 -33.60 HU 70 18 57
1889 NA NA 03:00:00 TS 41.35 -32.65 1719 1714 _____________P -1 41.35 -32.65 HU 70 17 58
1889 NA NA 06:00:00 TS 41.80 -31.70 1757 1736 _____________O -1 41.80 -31.70 HU 70 18 63
1889 NA NA 09:00:00 TS 42.16 -30.55 1734 1653 _____________P -1 42.16 -30.55 HU 70 18 56
1889 NA NA 12:00:00 TS 42.80 -29.70 1651 1630 _____________O -1 42.80 -29.70 HU 70 20 20
1889 NA NA 15:00:00 TS 44.06 -29.59 1630 1575 _____________P -1 44.06 -29.59 HU 70 28 359
1889 NA NA 18:00:00 TS 45.60 -29.80 1568 1495 _____________O -1 45.60 -29.80 HU 70 29 356
1889 NA NA 21:00:00 TS 47.00 -29.85 1496 1432 _____________P -1 47.00 -29.85 HU 70 28 359
1889 NA NA 1889-09-10 00:00:00 TS 48.40 -29.90 1427 1378 _____________O -1 48.40 -29.90 HU 70 28 359
1889 NA NA 03:00:00 TS 49.80 -29.96 1378 1285 _____________P -1 49.80 -29.96 HU 70 28 359
1889 NA NA 06:00:00 TS 51.20 -30.00 1275 1138 _____________O -1 51.20 -30.00 HU 70 29 359
1889 NA NA 09:00:00 TS 52.73 -30.06 1138 1042 _____________P -1 52.73 -30.06 HU 70 28 0
1889 NA NA 12:00:00 ET 54.00 -30.00 1034 996 _____________O -1 54.00 -30.00 EX 70 955 19 6
1889 NA NA 15:00:00 ET 54.64 -29.70 1001 988 _____________P -1 54.64 -29.70 EX 70 11 22
1889 NA NA 18:00:00 ET 55.00 -29.30 991 971 _____________O -1 55.00 -29.30 EX 70 10 25
1889 NA NA 21:00:00 ET 55.50 -28.99 971 924 _____________P -1 55.50 -28.99 EX 67 11 19
1889 NA NA 1889-09-11 00:00:00 ET 56.00 -28.70 924 865 _____________O -1 56.00 -28.70 EX 65 11 18
1889 NA NA 03:00:00 ET 56.50 -28.40 865 807 _____________P -1 56.50 -28.40 EX 65 10 18
1889 NA NA 06:00:00 ET 57.00 -28.10 807 747 _____________O -1 57.00 -28.10 EX 65 11 22
1889 NA NA 09:00:00 ET 57.55 -27.63 734 691 _____________P -1 57.55 -27.63 EX 65 10 18
1889 NA NA 12:00:00 ET 58.00 -27.50 691 676 _____________O -1 58.00 -27.50 EX 65 984 7 336
1889 NA NA 15:00:00 ET 58.21 -28.18 685 682 _____________P -1 58.21 -28.18 EX 60 9 289
1889 NA NA 18:00:00 ET 58.30 -29.20 699 699 _____________O -1 58.30 -29.20 EX 55 10 280
1889 NA NA 21:00:00 ET 58.39 -30.07 715 712 _____________P -1 58.39 -30.07 EX 50 9 283
1889 NA NA 1889-09-12 00:00:00 ET 58.50 -30.80 712 _____________O -1 58.50 -30.80 EX 45 8 286